Pato Real — CSKT — position and weather

sailwx.info

Track history (hours):
 
Tides and Currents Weather Stations Pressure Air Temp Water Temp Dewpoint Dewpoint Depression Visibility Wind Speed Wind Dir Waves Ship Positions

Pato Real

Last reported at 2018-Jul-21 18:30 UTC. Time now 2018-Jul-21 18:53 UTC.
Position N 38°31' W 008°53'.

Length 70 m; draft 2.8 m.

MMSI: 263701940.

Date/timePositionNaut miles runAvg speedWind from/ knotsBaromVisibWave heightAir tempDewpointWater temp
2018-Jul-21 18:30N 38°31' W 008°53'3 6.2
2018-Jul-21 18:00N 38°28' W 008°52'3 6.9
2018-Jul-21 17:30N 38°31' W 008°53'3 6.0
2018-Jul-21 16:57N 38°28' W 008°52'3 6.5
2018-Jul-21 16:30N 38°31' W 008°53'1 2.8
2018-Jul-21 16:01N 38°29' W 008°53'0 0.8
2018-Jul-21 15:31N 38°29' W 008°53'2 4.2
2018-Jul-21 15:01N 38°31' W 008°53'3 5.9
2018-Jul-21 14:29N 38°28' W 008°52'0 0.0
2018-Jul-21 13:29N 38°28' W 008°52'3 6.1
2018-Jul-21 13:00N 38°31' W 008°53'2 4.4
2018-Jul-21 12:31N 38°29' W 008°52'1 1.3
2018-Jul-21 12:00N 38°29' W 008°53'2 3.5
2018-Jul-21 11:30N 38°31' W 008°53'3 5.9
2018-Jul-21 10:58N 38°28' W 008°52'3 7.2
2018-Jul-21 10:30N 38°31' W 008°53'3 6.7
2018-Jul-21 10:00N 38°28' W 008°52'3 6.2
2018-Jul-21 09:30N 38°31' W 008°53'2 3.8
2018-Jul-21 09:00N 38°29' W 008°52'1 2.1
2018-Jul-21 08:30N 38°30' W 008°53'1 2.6
2018-Jul-21 07:56N 38°31' W 008°53'0 0.0
2018-Jul-21 07:26N 38°31' W 008°53'0 0.0
2018-Jul-21 06:56N 38°31' W 008°53'0 0.0
2018-Jul-21 06:26N 38°31' W 008°53'0 0.0
2018-Jul-21 05:56N 38°31' W 008°53'0 0.0
2018-Jul-21 05:26N 38°31' W 008°53'0 0.0
2018-Jul-21 04:59N 38°31' W 008°53'0 0.0
2018-Jul-21 04:29N 38°31' W 008°53'0 0.0
2018-Jul-21 03:50N 38°31' W 008°53'0 0.0
2018-Jul-21 03:29N 38°31' W 008°53'0 0.0
2018-Jul-21 02:53N 38°31' W 008°53'0 0.0
2018-Jul-21 02:26N 38°31' W 008°53'0 0.0
2018-Jul-21 01:56N 38°31' W 008°53'0 0.0
2018-Jul-21 01:26N 38°31' W 008°53'0 0.0
2018-Jul-21 00:59N 38°31' W 008°53'0 0.0
2018-Jul-21 00:26N 38°31' W 008°53'0 0.0
2018-Jul-20 23:56N 38°31' W 008°53'0 0.0
2018-Jul-20 23:29N 38°31' W 008°53'0 0.0
2018-Jul-20 22:59N 38°31' W 008°53'0 0.0
2018-Jul-20 22:26N 38°31' W 008°53'0 0.0
2018-Jul-20 21:56N 38°31' W 008°53'0 0.0
2018-Jul-20 21:28N 38°31' W 008°53'3 7.2
2018-Jul-20 21:00N 38°28' W 008°52'3 6.4
2018-Jul-20 20:28N 38°31' W 008°53'3 5.8
2018-Jul-20 20:01N 38°29' W 008°52'1 2.3
2018-Jul-20 19:30N 38°30' W 008°53'0 0.4
2018-Jul-20 19:00N 38°30' W 008°53'2 3.8
2018-Jul-20 18:30N 38°28' W 008°52'3 6.2
2018-Jul-20 18:00N 38°31' W 008°53'3 6.4
2018-Jul-20 17:29N 38°28' W 008°52'3 6.7
2018-Jul-20 16:59N 38°31' W 008°53'3 6.4
2018-Jul-20 16:31N 38°28' W 008°52'2 3.9
2018-Jul-20 16:00N 38°30' W 008°53'0 0.4
2018-Jul-20 15:30N 38°30' W 008°53'2 4.9
2018-Jul-20 15:00N 38°28' W 008°52'3 6.8
2018-Jul-20 14:30N 38°31' W 008°53'3 6.2
2018-Jul-20 13:58N 38°28' W 008°52'3 7.1
2018-Jul-20 13:30N 38°31' W 008°53'2 4.6
2018-Jul-20 13:00N 38°29' W 008°52'1 1.7
2018-Jul-20 12:30N 38°29' W 008°53'1 1.6
2018-Jul-20 12:00N 38°30' W 008°53'1 3.0
2018-Jul-20 11:30N 38°29' W 008°52'2 3.9
2018-Jul-20 10:54N 38°31' W 008°53'3 8.4
2018-Jul-20 10:30N 38°28' W 008°52'3 4.2
2018-Jul-20 09:44N 38°31' W 008°53'310.5
2018-Jul-20 09:29N 38°29' W 008°52'1 2.4
2018-Jul-20 09:00N 38°30' W 008°53'1 1.3
2018-Jul-20 08:30N 38°30' W 008°53'2 4.8
2018-Jul-20 08:00N 38°28' W 008°52'3 5.9
2018-Jul-20 07:27N 38°31' W 008°53'3 7.5
2018-Jul-20 07:00N 38°28' W 008°52'3 0.5
2018-Jul-19 23:40N 38°31' W 008°53'0 0.0
2018-Jul-19 23:15N 38°31' W 008°53'2 7.6
2018-Jul-19 23:00N 38°29' W 008°53'0 0.5
2018-Jul-19 22:31N 38°29' W 008°53'2 4.0
2018-Jul-19 21:59N 38°31' W 008°53'0 0.0
2018-Jul-19 21:30N 38°31' W 008°53'3 6.7
2018-Jul-19 21:00N 38°28' W 008°52'3 6.3
2018-Jul-19 20:28N 38°31' W 008°53'3 6.2
2018-Jul-19 20:00N 38°29' W 008°52'2 3.1
2018-Jul-19 19:30N 38°30' W 008°53'0 0.3
2018-Jul-19 19:00N 38°30' W 008°53'2 4.0
2018-Jul-19 18:30N 38°28' W 008°52'3 6.2
2018-Jul-19 18:00N 38°31' W 008°53'3 6.5
2018-Jul-19 17:30N 38°28' W 008°52'3 6.8
2018-Jul-19 17:00N 38°31' W 008°53'3 5.8
2018-Jul-19 16:30N 38°29' W 008°52'2 3.4
2018-Jul-19 16:00N 38°30' W 008°53'0 0.4
2018-Jul-19 15:30N 38°30' W 008°53'2 3.7
2018-Jul-19 15:00N 38°28' W 008°52'0 0.4
2018-Jul-19 14:00N 38°28' W 008°52'3 6.8
2018-Jul-19 13:30N 38°31' W 008°53'3 5.8
2018-Jul-19 12:59N 38°28' W 008°52'2 3.9
2018-Jul-19 12:30N 38°30' W 008°53'0 0.3
2018-Jul-19 11:59N 38°30' W 008°53'1 2.2
2018-Jul-19 11:29N 38°29' W 008°53'2 4.5
2018-Jul-19 11:00N 38°31' W 008°53'3 6.7
2018-Jul-19 10:30N 38°28' W 008°52'3 6.8
2018-Jul-19 10:00N 38°31' W 008°53'3 5.1
2018-Jul-19 09:30N 38°29' W 008°52'1 2.4
2018-Jul-19 09:00N 38°30' W 008°53'1 1.1
2018-Jul-19 08:30N 38°30' W 008°53'2 4.8
2018-Jul-19 08:00N 38°28' W 008°52'3 6.3
2018-Jul-19 07:29N 38°31' W 008°53'3 6.7
2018-Jul-19 06:59N 38°28' W 008°52'3 6.6
2018-Jul-19 06:29N 38°31' W 008°53'0 0.0
2018-Jul-19 05:58N 38°31' W 008°53'0 0.0
2018-Jul-19 05:10N 38°31' W 008°53'0 0.0
2018-Jul-19 04:55N 38°31' W 008°53'0 0.0
2018-Jul-19 00:37N 38°31' W 008°53'0 0.0
2018-Jul-18 23:40N 38°31' W 008°53'0 0.0
2018-Jul-18 23:19N 38°31' W 008°53'2 6.3
2018-Jul-18 23:00N 38°29' W 008°53'0 0.6
2018-Jul-18 22:30N 38°29' W 008°52'2 4.3
2018-Jul-18 22:00N 38°31' W 008°53'3 6.6
2018-Jul-18 21:30N 38°28' W 008°52'3 6.7
2018-Jul-18 21:00N 38°31' W 008°53'3 6.2
2018-Jul-18 20:28N 38°28' W 008°52'3 6.1
2018-Jul-18 20:00N 38°31' W 008°53'1 2.4
2018-Jul-18 19:30N 38°29' W 008°53'1 1.3
2018-Jul-18 19:00N 38°29' W 008°52'2 4.1
2018-Jul-18 18:30N 38°31' W 008°53'3 5.7
2018-Jul-18 17:59N 38°28' W 008°52'3 7.1
2018-Jul-18 17:30N 38°31' W 008°53'3 5.9
2018-Jul-18 16:56N 38°28' W 008°52'3 6.7
2018-Jul-18 16:30N 38°31' W 008°53'1 2.8
2018-Jul-18 16:00N 38°29' W 008°53'1 1.1
2018-Jul-18 15:30N 38°29' W 008°52'2 4.7
2018-Jul-18 15:00N 38°31' W 008°53'3 6.5
2018-Jul-18 14:30N 38°28' W 008°52'0 0.0
2018-Jul-18 13:28N 38°28' W 008°52'3 6.0
2018-Jul-18 13:00N 38°31' W 008°53'1 2.2
2018-Jul-18 12:30N 38°30' W 008°53'1 1.3
2018-Jul-18 12:00N 38°29' W 008°52'2 4.2
2018-Jul-18 11:30N 38°31' W 008°53'0 0.3
2018-Jul-18 10:30N 38°31' W 008°53'3 6.8
2018-Jul-18 10:00N 38°28' W 008°52'3 5.4
2018-Jul-18 09:30N 38°31' W 008°53'1 1.6
2018-Jul-18 09:00N 38°30' W 008°53'1 1.8
2018-Jul-18 08:30N 38°29' W 008°53'2 4.6
2018-Jul-18 08:00N 38°31' W 008°53'0 0.0
2018-Jul-18 07:25N 38°31' W 008°53'0 0.0
2018-Jul-18 06:49N 38°31' W 008°53'0 0.0
2018-Jul-18 06:25N 38°31' W 008°53'0 0.0
2018-Jul-18 05:55N 38°31' W 008°53'0 0.0
2018-Jul-18 05:25N 38°31' W 008°53'0 0.0
2018-Jul-18 04:55N 38°31' W 008°53'0 0.0
2018-Jul-18 04:25N 38°31' W 008°53'0 0.0
2018-Jul-18 03:55N 38°31' W 008°53'0 0.0
2018-Jul-18 03:19N 38°31' W 008°53'0 0.0
2018-Jul-18 02:55N 38°31' W 008°53'0 0.0
2018-Jul-18 02:25N 38°31' W 008°53'0 0.0
2018-Jul-18 01:49N 38°31' W 008°53'0 0.0
2018-Jul-18 01:25N 38°31' W 008°53'0 0.0
2018-Jul-18 00:55N 38°31' W 008°53'0 0.0
2018-Jul-18 00:25N 38°31' W 008°53'0 0.0
2018-Jul-17 23:55N 38°31' W 008°53'0 0.0
2018-Jul-17 23:28N 38°31' W 008°53'0 0.0
2018-Jul-17 22:58N 38°31' W 008°53'0 0.0
2018-Jul-17 22:28N 38°31' W 008°53'0 0.0
2018-Jul-17 21:58N 38°31' W 008°53'0 0.0
2018-Jul-17 21:29N 38°31' W 008°53'3 6.9
2018-Jul-17 20:59N 38°28' W 008°52'3 7.1
2018-Jul-17 20:30N 38°31' W 008°53'3 5.3
2018-Jul-17 20:00N 38°29' W 008°52'1 2.3
2018-Jul-17 19:30N 38°30' W 008°53'0 0.9
2018-Jul-17 19:00N 38°30' W 008°53'2 4.4
2018-Jul-17 18:30N 38°28' W 008°52'3 6.6
2018-Jul-17 18:00N 38°31' W 008°53'3 6.4
2018-Jul-17 17:29N 38°28' W 008°52'3 7.1
2018-Jul-17 17:00N 38°31' W 008°53'3 5.6
2018-Jul-17 16:30N 38°29' W 008°52'1 2.5
2018-Jul-17 16:00N 38°30' W 008°53'0 0.5
2018-Jul-17 15:30N 38°30' W 008°53'2 3.8
2018-Jul-17 14:59N 38°28' W 008°52'3 6.7
2018-Jul-17 14:30N 38°31' W 008°53'3 6.7
2018-Jul-17 14:00N 38°28' W 008°52'3 6.8
2018-Jul-17 13:30N 38°31' W 008°53'3 5.1
2018-Jul-17 13:00N 38°29' W 008°52'1 2.5
2018-Jul-17 12:30N 38°30' W 008°53'0 0.2
2018-Jul-17 12:00N 38°30' W 008°53'2 3.7
2018-Jul-17 11:30N 38°28' W 008°52'3 5.9
2018-Jul-17 11:00N 38°31' W 008°53'3 6.1
2018-Jul-17 10:27N 38°28' W 008°52'3 7.6
2018-Jul-17 10:00N 38°31' W 008°53'2 4.9
2018-Jul-17 09:30N 38°29' W 008°52'2 3.0
2018-Jul-17 08:59N 38°30' W 008°53'1 1.8
2018-Jul-17 08:30N 38°31' W 008°53'3 5.2
2018-Jul-17 08:00N 38°29' W 008°52'3 5.8
2018-Jul-17 07:30N 38°31' W 008°53'3 6.0
2018-Jul-17 06:57N 38°28' W 008°52'3 7.4
2018-Jul-17 06:29N 38°31' W 008°53'0 0.0
2018-Jul-17 05:45N 38°31' W 008°53'0 0.0
2018-Jul-17 03:33N 38°31' W 008°53'0 0.0
2018-Jul-17 03:24N 38°31' W 008°53'0 0.0
2018-Jul-17 02:57N 38°31' W 008°53'0 0.0
2018-Jul-17 01:30N 38°31' W 008°53'0 0.0
2018-Jul-17 00:21N 38°31' W 008°53'0 0.0
2018-Jul-16 23:21N 38°31' W 008°53'2 6.0
2018-Jul-16 22:58N 38°29' W 008°52'0 1.0
2018-Jul-16 22:30N 38°29' W 008°53'2 3.7
2018-Jul-16 22:00N 38°31' W 008°53'3 6.6
2018-Jul-16 21:30N 38°28' W 008°52'3 6.7
2018-Jul-16 21:00N 38°31' W 008°53'3 6.6
2018-Jul-16 20:30N 38°28' W 008°52'3 5.9
2018-Jul-16 20:00N 38°31' W 008°53'1 2.2
2018-Jul-16 19:30N 38°30' W 008°53'1 1.3
2018-Jul-16 19:00N 38°29' W 008°53'2 4.3
2018-Jul-16 18:30N 38°31' W 008°53'3 6.3
2018-Jul-16 18:00N 38°28' W 008°52'3 6.9
2018-Jul-16 17:30N 38°31' W 008°53'3 6.7
2018-Jul-16 17:00N 38°28' W 008°52'3 5.7
2018-Jul-16 16:30N 38°31' W 008°53'2 3.1
2018-Jul-16 16:00N 38°29' W 008°52'1 1.3
2018-Jul-16 15:31N 38°29' W 008°52'2 4.3
2018-Jul-16 15:00N 38°31' W 008°53'3 5.4
2018-Jul-16 14:29N 38°28' W 008°52'3 6.6
2018-Jul-16 13:59N 38°31' W 008°53'3 7.1
2018-Jul-16 13:30N 38°28' W 008°52'3 5.5
2018-Jul-16 13:00N 38°31' W 008°53'1 2.4
2018-Jul-16 12:30N 38°29' W 008°53'1 1.0
2018-Jul-16 12:00N 38°29' W 008°52'2 4.4
2018-Jul-16 11:31N 38°31' W 008°53'3 6.2
2018-Jul-16 10:59N 38°28' W 008°52'3 5.6
2018-Jul-16 10:24N 38°31' W 008°53'3 8.7
2018-Jul-16 10:01N 38°28' W 008°52'3 6.3
2018-Jul-16 09:30N 38°31' W 008°53'1 2.6
2018-Jul-16 09:00N 38°30' W 008°53'1 1.1
2018-Jul-16 08:29N 38°29' W 008°53'2 4.1
2018-Jul-16 07:59N 38°31' W 008°53'0 0.0
2018-Jul-16 07:29N 38°31' W 008°53'0 0.0
2018-Jul-16 06:56N 38°31' W 008°53'0 0.0
2018-Jul-16 06:29N 38°31' W 008°53'0 0.0
2018-Jul-16 05:59N 38°31' W 008°53'0 0.0
2018-Jul-16 05:29N 38°31' W 008°53'0 0.0
2018-Jul-16 04:56N 38°31' W 008°53'0 0.0
2018-Jul-16 04:29N 38°31' W 008°53'0 0.0
2018-Jul-16 03:53N 38°31' W 008°53'0 0.0
2018-Jul-16 03:29N 38°31' W 008°53'0 0.0
2018-Jul-16 02:59N 38°31' W 008°53'0 0.0
2018-Jul-16 02:29N 38°31' W 008°53'0 0.0
2018-Jul-16 01:59N 38°31' W 008°53'0 0.0
2018-Jul-16 01:26N 38°31' W 008°53'0 0.0
2018-Jul-16 00:59N 38°31' W 008°53'0 0.0
2018-Jul-16 00:26N 38°31' W 008°53'0 0.0
2018-Jul-15 23:59N 38°31' W 008°53'0 0.0
2018-Jul-15 23:29N 38°31' W 008°53'0 0.0
2018-Jul-15 22:59N 38°31' W 008°53'0 0.0
2018-Jul-15 22:29N 38°31' W 008°53'0 0.0
2018-Jul-15 21:56N 38°31' W 008°53'0 0.0
2018-Jul-15 21:31N 38°31' W 008°53'3 6.1
2018-Jul-15 20:57N 38°28' W 008°52'3 7.5
2018-Jul-15 20:30N 38°31' W 008°53'2 5.0
2018-Jul-15 20:00N 38°29' W 008°52'1 2.6
2018-Jul-15 19:29N 38°30' W 008°53'0 0.8
2018-Jul-15 19:00N 38°30' W 008°53'2 3.9
2018-Jul-15 18:30N 38°29' W 008°52'3 5.3
2018-Jul-15 17:59N 38°31' W 008°53'3 6.3
2018-Jul-15 17:27N 38°28' W 008°52'3 6.3
2018-Jul-15 16:55N 38°31' W 008°53'3 6.8
2018-Jul-15 16:30N 38°29' W 008°52'1 2.7
2018-Jul-15 16:00N 38°30' W 008°53'1 1.2
2018-Jul-15 15:30N 38°30' W 008°53'2 4.4
2018-Jul-15 15:00N 38°28' W 008°52'3 6.4
2018-Jul-15 14:29N 38°31' W 008°53'3 7.0
2018-Jul-15 14:00N 38°28' W 008°52'3 5.0
2018-Jul-15 13:20N 38°31' W 008°53'3 8.2
2018-Jul-15 13:01N 38°29' W 008°52'1 2.4
2018-Jul-15 12:30N 38°30' W 008°53'0 0.7
2018-Jul-15 12:00N 38°30' W 008°53'2 4.4
2018-Jul-15 11:30N 38°28' W 008°52'3 6.5
2018-Jul-15 11:01N 38°31' W 008°53'3 6.6
2018-Jul-15 10:30N 38°28' W 008°52'3 6.1
2018-Jul-15 09:57N 38°31' W 008°53'3 6.1
2018-Jul-15 09:30N 38°29' W 008°52'1 2.9
2018-Jul-15 09:01N 38°30' W 008°53'1 1.7
2018-Jul-15 08:30N 38°31' W 008°53'2 4.9
2018-Jul-15 08:01N 38°28' W 008°52'3 5.6
2018-Jul-15 07:29N 38°31' W 008°53'3 7.1
2018-Jul-15 07:00N 38°28' W 008°52'3 5.6
2018-Jul-15 06:24N 38°31' W 008°53'0 0.0
2018-Jul-15 06:00N 38°31' W 008°53'0 0.0
2018-Jul-15 05:29N 38°31' W 008°53'0 0.0
2018-Jul-15 04:59N 38°31' W 008°53'0 0.0
2018-Jul-15 03:23N 38°31' W 008°53'0 0.0
2018-Jul-15 02:59N 38°31' W 008°53'0 0.0
2018-Jul-15 02:29N 38°31' W 008°53'0 0.0
2018-Jul-15 01:17N 38°31' W 008°53'0 0.0
2018-Jul-15 00:53N 38°31' W 008°53'0 0.0
2018-Jul-15 00:28N 38°31' W 008°53'3 7.3
2018-Jul-15 00:00N 38°28' W 008°52'3 5.7
2018-Jul-14 23:30N 38°31' W 008°53'2 3.6
2018-Jul-14 22:59N 38°29' W 008°52'1 2.1
2018-Jul-14 22:30N 38°30' W 008°53'1 2.9
2018-Jul-14 22:00N 38°31' W 008°53'3 5.9
2018-Jul-14 21:28N 38°28' W 008°52'3 5.9
2018-Jul-14 20:55N 38°31' W 008°53'3 8.3
2018-Jul-14 20:30N 38°28' W 008°52'3 5.6
2018-Jul-14 20:00N 38°31' W 008°53'1 1.6
2018-Jul-14 19:30N 38°30' W 008°53'1 1.8
2018-Jul-14 19:00N 38°29' W 008°53'2 4.5
2018-Jul-14 18:30N 38°31' W 008°53'3 6.6
2018-Jul-14 18:00N 38°28' W 008°52'3 5.2
2018-Jul-14 17:21N 38°31' W 008°53'3 9.0
2018-Jul-14 16:58N 38°28' W 008°52'3 6.3
2018-Jul-14 16:29N 38°31' W 008°53'2 3.9
2018-Jul-14 16:00N 38°29' W 008°52'0 0.5
2018-Jul-14 15:30N 38°29' W 008°53'1 2.9
2018-Jul-14 14:59N 38°31' W 008°53'3 4.3
2018-Jul-14 14:23N 38°28' W 008°52'0 0.4
2018-Jul-14 13:30N 38°28' W 008°52'3 6.0
2018-Jul-14 13:01N 38°31' W 008°53'1 2.7
2018-Jul-14 12:30N 38°29' W 008°53'1 1.2
2018-Jul-14 12:00N 38°29' W 008°52'2 4.4
2018-Jul-14 11:30N 38°31' W 008°53'3 6.4
2018-Jul-14 11:00N 38°28' W 008°52'3 6.8
2018-Jul-14 10:30N 38°31' W 008°53'3 6.8
2018-Jul-14 10:01N 38°28' W 008°52'3 5.7
2018-Jul-14 09:31N 38°31' W 008°53'1 2.2
2018-Jul-14 09:00N 38°30' W 008°53'0 0.2
2018-Jul-14 08:31N 38°29' W 008°53'2 3.4
2018-Jul-14 07:59N 38°31' W 008°53'0 0.0
2018-Jul-14 07:29N 38°31' W 008°53'0 0.0
2018-Jul-14 06:59N 38°31' W 008°53'0 0.0
2018-Jul-14 06:29N 38°31' W 008°53'0 0.0
2018-Jul-14 05:56N 38°31' W 008°53'0 0.0
2018-Jul-14 05:29N 38°31' W 008°53'0 0.0
2018-Jul-14 04:59N 38°31' W 008°53'0 0.0
2018-Jul-14 04:29N 38°31' W 008°53'0 0.0
2018-Jul-14 03:53N 38°31' W 008°53'0 0.0
2018-Jul-14 03:29N 38°31' W 008°53'0 0.0
2018-Jul-14 02:59N 38°31' W 008°53'0 0.0
2018-Jul-14 02:26N 38°31' W 008°53'0 0.0
2018-Jul-14 01:59N 38°31' W 008°53'0 0.0
2018-Jul-14 01:29N 38°31' W 008°53'0 0.0
2018-Jul-14 00:59N 38°31' W 008°53'0 0.0
2018-Jul-14 00:29N 38°31' W 008°53'0 0.0
2018-Jul-13 23:53N 38°31' W 008°53'0 0.0
2018-Jul-13 23:29N 38°31' W 008°53'0 0.0
2018-Jul-13 22:53N 38°31' W 008°53'0 0.0
2018-Jul-13 22:29N 38°31' W 008°53'0 0.0
2018-Jul-13 21:59N 38°31' W 008°53'0 0.0
2018-Jul-13 21:30N 38°31' W 008°53'3 6.8
2018-Jul-13 21:00N 38°28' W 008°52'3 5.8
2018-Jul-13 20:25N 38°31' W 008°53'3 6.2
2018-Jul-13 20:00N 38°29' W 008°52'1 2.8
2018-Jul-13 19:30N 38°30' W 008°53'1 1.2
2018-Jul-13 19:00N 38°30' W 008°53'2 4.4
2018-Jul-13 18:30N 38°28' W 008°52'3 5.8
2018-Jul-13 18:00N 38°31' W 008°53'3 6.3
2018-Jul-13 17:28N 38°28' W 008°52'3 7.4
2018-Jul-13 17:00N 38°31' W 008°53'3 5.2
2018-Jul-13 16:30N 38°29' W 008°52'1 2.5
2018-Jul-13 16:00N 38°30' W 008°53'0 0.6
2018-Jul-13 15:30N 38°30' W 008°53'2 4.5
2018-Jul-13 15:00N 38°28' W 008°52'0 0.1
2018-Jul-13 14:00N 38°28' W 008°52'3 6.4
2018-Jul-13 13:29N 38°31' W 008°53'3 5.8
2018-Jul-13 13:00N 38°29' W 008°52'2 3.2
2018-Jul-13 12:31N 38°30' W 008°53'0 0.6
2018-Jul-13 12:00N 38°30' W 008°53'2 3.6
2018-Jul-13 11:31N 38°28' W 008°52'3 6.2
2018-Jul-13 10:59N 38°31' W 008°53'3 6.6
2018-Jul-13 10:28N 38°28' W 008°52'3 7.2
2018-Jul-13 10:00N 38°31' W 008°53'3 5.8
2018-Jul-13 09:30N 38°29' W 008°52'1 3.0
2018-Jul-13 09:00N 38°30' W 008°53'1 1.3
2018-Jul-13 08:29N 38°30' W 008°53'2 4.7
2018-Jul-13 08:00N 38°28' W 008°52'3 6.1
2018-Jul-13 07:30N 38°31' W 008°53'3 6.7
2018-Jul-13 07:00N 38°28' W 008°52'3 6.8
2018-Jul-13 06:30N 38°31' W 008°53'0 0.0
2018-Jul-13 05:56N 38°31' W 008°53'0 0.0
2018-Jul-13 05:29N 38°31' W 008°53'0 0.0
2018-Jul-13 04:59N 38°31' W 008°53'0 0.0
2018-Jul-13 04:29N 38°31' W 008°53'0 0.0
2018-Jul-13 03:50N 38°31' W 008°53'0 0.0
2018-Jul-13 03:29N 38°31' W 008°53'0 0.0
2018-Jul-13 02:56N 38°31' W 008°53'0 0.0
2018-Jul-13 02:20N 38°31' W 008°53'0 0.0
2018-Jul-13 01:41N 38°31' W 008°53'0 0.0
2018-Jul-12 23:29N 38°31' W 008°53'2 4.2
2018-Jul-12 23:00N 38°29' W 008°53'0 0.6
2018-Jul-12 22:30N 38°29' W 008°52'2 4.0
2018-Jul-12 22:00N 38°31' W 008°53'3 6.1
2018-Jul-12 21:30N 38°28' W 008°52'3 6.2
2018-Jul-12 20:57N 38°31' W 008°53'3 7.1
2018-Jul-12 20:28N 38°28' W 008°52'3 5.9
2018-Jul-12 20:00N 38°31' W 008°53'1 2.5
2018-Jul-12 19:30N 38°29' W 008°53'0 0.7
2018-Jul-12 19:00N 38°29' W 008°53'2 4.3
2018-Jul-12 18:30N 38°31' W 008°53'3 6.1
2018-Jul-12 17:59N 38°28' W 008°52'3 6.7
2018-Jul-12 17:30N 38°31' W 008°53'3 6.7
2018-Jul-12 17:00N 38°28' W 008°52'3 5.6
2018-Jul-12 16:30N 38°31' W 008°53'1 1.6
2018-Jul-12 16:00N 38°30' W 008°53'1 1.7
2018-Jul-12 15:30N 38°29' W 008°53'2 3.7
2018-Jul-12 15:00N 38°31' W 008°53'3 5.8
2018-Jul-12 14:30N 38°28' W 008°52'3 6.6
2018-Jul-12 14:00N 38°31' W 008°53'3 6.7
2018-Jul-12 13:30N 38°28' W 008°52'3 5.2
2018-Jul-12 13:00N 38°30' W 008°53'1 2.1
2018-Jul-12 12:30N 38°29' W 008°53'1 1.4
2018-Jul-12 12:00N 38°29' W 008°52'2 3.9
2018-Jul-12 11:29N 38°31' W 008°53'3 5.8
2018-Jul-12 11:00N 38°28' W 008°52'3 5.6
2018-Jul-12 10:24N 38°31' W 008°53'3 8.3
2018-Jul-12 10:00N 38°28' W 008°52'3 5.8
2018-Jul-12 09:30N 38°31' W 008°53'2 3.2
2018-Jul-12 08:59N 38°29' W 008°53'0 0.8
2018-Jul-12 08:30N 38°29' W 008°52'3 5.1
2018-Jul-12 08:00N 38°31' W 008°53'0 0.0
2018-Jul-12 07:26N 38°31' W 008°53'0 0.0
2018-Jul-12 06:50N 38°31' W 008°53'0 0.0
2018-Jul-12 06:26N 38°31' W 008°53'0 0.0
2018-Jul-12 05:56N 38°31' W 008°53'0 0.0
2018-Jul-12 05:29N 38°31' W 008°53'0 0.0
2018-Jul-12 04:59N 38°31' W 008°53'0 0.0
2018-Jul-12 04:29N 38°31' W 008°53'0 0.0
2018-Jul-12 03:56N 38°31' W 008°53'0 0.0
2018-Jul-12 03:23N 38°31' W 008°53'0 0.0
2018-Jul-12 02:56N 38°31' W 008°53'0 0.0
2018-Jul-12 02:26N 38°31' W 008°53'0 0.0
2018-Jul-12 01:59N 38°31' W 008°53'0 0.0
2018-Jul-12 01:14N 38°31' W 008°53'0 0.0
2018-Jul-12 00:56N 38°31' W 008°53'0 0.0
2018-Jul-12 00:20N 38°31' W 008°53'0 0.0
2018-Jul-11 23:56N 38°31' W 008°53'0 0.0
2018-Jul-11 23:26N 38°31' W 008°53'0 0.0
2018-Jul-11 22:53N 38°31' W 008°53'0 0.0
2018-Jul-11 22:26N 38°31' W 008°53'0 0.0
2018-Jul-11 21:44N 38°31' W 008°53'0 0.1
2018-Jul-11 21:30N 38°31' W 008°53'3 6.3
2018-Jul-11 20:58N 38°28' W 008°52'3 6.6
2018-Jul-11 20:28N 38°31' W 008°53'3 5.8
2018-Jul-11 20:00N 38°29' W 008°52'1 2.7
2018-Jul-11 19:31N 38°30' W 008°53'0 1.0
2018-Jul-11 19:00N 38°30' W 008°53'2 4.7
2018-Jul-11 18:30N 38°28' W 008°52'  
Track history (hours):
 
Tides and Currents Weather Stations Pressure Air Temp Water Temp Dewpoint Dewpoint Depression Visibility Wind Speed Wind Dir Waves Ship Positions

Pato Real

Last reported at 2018-Jul-21 18:30 UTC. Time now 2018-Jul-21 18:53 UTC.
Position N 38°31' W 008°53'.

Length 70 m; draft 2.8 m.

MMSI: 263701940.

Date/timePositionNaut miles runAvg speedWind from/ knotsBaromVisibWave heightAir tempDewpointWater temp
2018-Jul-21 18:30N 38°31' W 008°53'3 6.2
2018-Jul-21 18:00N 38°28' W 008°52'3 6.9
2018-Jul-21 17:30N 38°31' W 008°53'3 6.0
2018-Jul-21 16:57N 38°28' W 008°52'3 6.5
2018-Jul-21 16:30N 38°31' W 008°53'1 2.8
2018-Jul-21 16:01N 38°29' W 008°53'0 0.8
2018-Jul-21 15:31N 38°29' W 008°53'2 4.2
2018-Jul-21 15:01N 38°31' W 008°53'3 5.9
2018-Jul-21 14:29N 38°28' W 008°52'0 0.0
2018-Jul-21 13:29N 38°28' W 008°52'3 6.1
2018-Jul-21 13:00N 38°31' W 008°53'2 4.4
2018-Jul-21 12:31N 38°29' W 008°52'1 1.3
2018-Jul-21 12:00N 38°29' W 008°53'2 3.5
2018-Jul-21 11:30N 38°31' W 008°53'3 5.9
2018-Jul-21 10:58N 38°28' W 008°52'3 7.2
2018-Jul-21 10:30N 38°31' W 008°53'3 6.7
2018-Jul-21 10:00N 38°28' W 008°52'3 6.2
2018-Jul-21 09:30N 38°31' W 008°53'2 3.8
2018-Jul-21 09:00N 38°29' W 008°52'1 2.1
2018-Jul-21 08:30N 38°30' W 008°53'1 2.6
2018-Jul-21 07:56N 38°31' W 008°53'0 0.0
2018-Jul-21 07:26N 38°31' W 008°53'0 0.0
2018-Jul-21 06:56N 38°31' W 008°53'0 0.0
2018-Jul-21 06:26N 38°31' W 008°53'0 0.0
2018-Jul-21 05:56N 38°31' W 008°53'0 0.0
2018-Jul-21 05:26N 38°31' W 008°53'0 0.0
2018-Jul-21 04:59N 38°31' W 008°53'0 0.0
2018-Jul-21 04:29N 38°31' W 008°53'0 0.0
2018-Jul-21 03:50N 38°31' W 008°53'0 0.0
2018-Jul-21 03:29N 38°31' W 008°53'0 0.0
2018-Jul-21 02:53N 38°31' W 008°53'0 0.0
2018-Jul-21 02:26N 38°31' W 008°53'0 0.0
2018-Jul-21 01:56N 38°31' W 008°53'0 0.0
2018-Jul-21 01:26N 38°31' W 008°53'0 0.0
2018-Jul-21 00:59N 38°31' W 008°53'0 0.0
2018-Jul-21 00:26N 38°31' W 008°53'0 0.0
2018-Jul-20 23:56N 38°31' W 008°53'0 0.0
2018-Jul-20 23:29N 38°31' W 008°53'0 0.0
2018-Jul-20 22:59N 38°31' W 008°53'0 0.0
2018-Jul-20 22:26N 38°31' W 008°53'0 0.0
2018-Jul-20 21:56N 38°31' W 008°53'0 0.0
2018-Jul-20 21:28N 38°31' W 008°53'3 7.2
2018-Jul-20 21:00N 38°28' W 008°52'3 6.4
2018-Jul-20 20:28N 38°31' W 008°53'3 5.8
2018-Jul-20 20:01N 38°29' W 008°52'1 2.3
2018-Jul-20 19:30N 38°30' W 008°53'0 0.4
2018-Jul-20 19:00N 38°30' W 008°53'2 3.8
2018-Jul-20 18:30N 38°28' W 008°52'3 6.2
2018-Jul-20 18:00N 38°31' W 008°53'3 6.4
2018-Jul-20 17:29N 38°28' W 008°52'3 6.7
2018-Jul-20 16:59N 38°31' W 008°53'3 6.4
2018-Jul-20 16:31N 38°28' W 008°52'2 3.9
2018-Jul-20 16:00N 38°30' W 008°53'0 0.4
2018-Jul-20 15:30N 38°30' W 008°53'2 4.9
2018-Jul-20 15:00N 38°28' W 008°52'3 6.8
2018-Jul-20 14:30N 38°31' W 008°53'3 6.2
2018-Jul-20 13:58N 38°28' W 008°52'3 7.1
2018-Jul-20 13:30N 38°31' W 008°53'2 4.6
2018-Jul-20 13:00N 38°29' W 008°52'1 1.7
2018-Jul-20 12:30N 38°29' W 008°53'1 1.6
2018-Jul-20 12:00N 38°30' W 008°53'1 3.0
2018-Jul-20 11:30N 38°29' W 008°52'2 3.9
2018-Jul-20 10:54N 38°31' W 008°53'3 8.4
2018-Jul-20 10:30N 38°28' W 008°52'3 4.2
2018-Jul-20 09:44N 38°31' W 008°53'310.5
2018-Jul-20 09:29N 38°29' W 008°52'1 2.4
2018-Jul-20 09:00N 38°30' W 008°53'1 1.3
2018-Jul-20 08:30N 38°30' W 008°53'2 4.8
2018-Jul-20 08:00N 38°28' W 008°52'3 5.9
2018-Jul-20 07:27N 38°31' W 008°53'3 7.5
2018-Jul-20 07:00N 38°28' W 008°52'3 0.5
2018-Jul-19 23:40N 38°31' W 008°53'0 0.0
2018-Jul-19 23:15N 38°31' W 008°53'2 7.6
2018-Jul-19 23:00N 38°29' W 008°53'0 0.5
2018-Jul-19 22:31N 38°29' W 008°53'2 4.0
2018-Jul-19 21:59N 38°31' W 008°53'0 0.0
2018-Jul-19 21:30N 38°31' W 008°53'3 6.7
2018-Jul-19 21:00N 38°28' W 008°52'3 6.3
2018-Jul-19 20:28N 38°31' W 008°53'3 6.2
2018-Jul-19 20:00N 38°29' W 008°52'2 3.1
2018-Jul-19 19:30N 38°30' W 008°53'0 0.3
2018-Jul-19 19:00N 38°30' W 008°53'2 4.0
2018-Jul-19 18:30N 38°28' W 008°52'3 6.2
2018-Jul-19 18:00N 38°31' W 008°53'3 6.5
2018-Jul-19 17:30N 38°28' W 008°52'3 6.8
2018-Jul-19 17:00N 38°31' W 008°53'3 5.8
2018-Jul-19 16:30N 38°29' W 008°52'2 3.4
2018-Jul-19 16:00N 38°30' W 008°53'0 0.4
2018-Jul-19 15:30N 38°30' W 008°53'2 3.7
2018-Jul-19 15:00N 38°28' W 008°52'0 0.4
2018-Jul-19 14:00N 38°28' W 008°52'3 6.8
2018-Jul-19 13:30N 38°31' W 008°53'3 5.8
2018-Jul-19 12:59N 38°28' W 008°52'2 3.9
2018-Jul-19 12:30N 38°30' W 008°53'0 0.3
2018-Jul-19 11:59N 38°30' W 008°53'1 2.2
2018-Jul-19 11:29N 38°29' W 008°53'2 4.5
2018-Jul-19 11:00N 38°31' W 008°53'3 6.7
2018-Jul-19 10:30N 38°28' W 008°52'3 6.8
2018-Jul-19 10:00N 38°31' W 008°53'3 5.1
2018-Jul-19 09:30N 38°29' W 008°52'1 2.4
2018-Jul-19 09:00N 38°30' W 008°53'1 1.1
2018-Jul-19 08:30N 38°30' W 008°53'2 4.8
2018-Jul-19 08:00N 38°28' W 008°52'3 6.3
2018-Jul-19 07:29N 38°31' W 008°53'3 6.7
2018-Jul-19 06:59N 38°28' W 008°52'3 6.6
2018-Jul-19 06:29N 38°31' W 008°53'0 0.0
2018-Jul-19 05:58N 38°31' W 008°53'0 0.0
2018-Jul-19 05:10N 38°31' W 008°53'0 0.0
2018-Jul-19 04:55N 38°31' W 008°53'0 0.0
2018-Jul-19 00:37N 38°31' W 008°53'0 0.0
2018-Jul-18 23:40N 38°31' W 008°53'0 0.0
2018-Jul-18 23:19N 38°31' W 008°53'2 6.3
2018-Jul-18 23:00N 38°29' W 008°53'0 0.6
2018-Jul-18 22:30N 38°29' W 008°52'2 4.3
2018-Jul-18 22:00N 38°31' W 008°53'3 6.6
2018-Jul-18 21:30N 38°28' W 008°52'3 6.7
2018-Jul-18 21:00N 38°31' W 008°53'3 6.2
2018-Jul-18 20:28N 38°28' W 008°52'3 6.1
2018-Jul-18 20:00N 38°31' W 008°53'1 2.4
2018-Jul-18 19:30N 38°29' W 008°53'1 1.3
2018-Jul-18 19:00N 38°29' W 008°52'2 4.1
2018-Jul-18 18:30N 38°31' W 008°53'3 5.7
2018-Jul-18 17:59N 38°28' W 008°52'3 7.1
2018-Jul-18 17:30N 38°31' W 008°53'3 5.9
2018-Jul-18 16:56N 38°28' W 008°52'3 6.7
2018-Jul-18 16:30N 38°31' W 008°53'1 2.8
2018-Jul-18 16:00N 38°29' W 008°53'1 1.1
2018-Jul-18 15:30N 38°29' W 008°52'2 4.7
2018-Jul-18 15:00N 38°31' W 008°53'3 6.5
2018-Jul-18 14:30N 38°28' W 008°52'0 0.0
2018-Jul-18 13:28N 38°28' W 008°52'3 6.0
2018-Jul-18 13:00N 38°31' W 008°53'1 2.2
2018-Jul-18 12:30N 38°30' W 008°53'1 1.3
2018-Jul-18 12:00N 38°29' W 008°52'2 4.2
2018-Jul-18 11:30N 38°31' W 008°53'0 0.3
2018-Jul-18 10:30N 38°31' W 008°53'3 6.8
2018-Jul-18 10:00N 38°28' W 008°52'3 5.4
2018-Jul-18 09:30N 38°31' W 008°53'1 1.6
2018-Jul-18 09:00N 38°30' W 008°53'1 1.8
2018-Jul-18 08:30N 38°29' W 008°53'2 4.6
2018-Jul-18 08:00N 38°31' W 008°53'0 0.0
2018-Jul-18 07:25N 38°31' W 008°53'0 0.0
2018-Jul-18 06:49N 38°31' W 008°53'0 0.0
2018-Jul-18 06:25N 38°31' W 008°53'0 0.0
2018-Jul-18 05:55N 38°31' W 008°53'0 0.0
2018-Jul-18 05:25N 38°31' W 008°53'0 0.0
2018-Jul-18 04:55N 38°31' W 008°53'0 0.0
2018-Jul-18 04:25N 38°31' W 008°53'0 0.0
2018-Jul-18 03:55N 38°31' W 008°53'0 0.0
2018-Jul-18 03:19N 38°31' W 008°53'0 0.0
2018-Jul-18 02:55N 38°31' W 008°53'0 0.0
2018-Jul-18 02:25N 38°31' W 008°53'0 0.0
2018-Jul-18 01:49N 38°31' W 008°53'0 0.0
2018-Jul-18 01:25N 38°31' W 008°53'0 0.0
2018-Jul-18 00:55N 38°31' W 008°53'0 0.0
2018-Jul-18 00:25N 38°31' W 008°53'0 0.0
2018-Jul-17 23:55N 38°31' W 008°53'0 0.0
2018-Jul-17 23:28N 38°31' W 008°53'0 0.0
2018-Jul-17 22:58N 38°31' W 008°53'0 0.0
2018-Jul-17 22:28N 38°31' W 008°53'0 0.0
2018-Jul-17 21:58N 38°31' W 008°53'0 0.0
2018-Jul-17 21:29N 38°31' W 008°53'3 6.9
2018-Jul-17 20:59N 38°28' W 008°52'3 7.1
2018-Jul-17 20:30N 38°31' W 008°53'3 5.3
2018-Jul-17 20:00N 38°29' W 008°52'1 2.3
2018-Jul-17 19:30N 38°30' W 008°53'0 0.9
2018-Jul-17 19:00N 38°30' W 008°53'2 4.4
2018-Jul-17 18:30N 38°28' W 008°52'3 6.6
2018-Jul-17 18:00N 38°31' W 008°53'3 6.4
2018-Jul-17 17:29N 38°28' W 008°52'3 7.1
2018-Jul-17 17:00N 38°31' W 008°53'3 5.6
2018-Jul-17 16:30N 38°29' W 008°52'1 2.5
2018-Jul-17 16:00N 38°30' W 008°53'0 0.5
2018-Jul-17 15:30N 38°30' W 008°53'2 3.8
2018-Jul-17 14:59N 38°28' W 008°52'3 6.7
2018-Jul-17 14:30N 38°31' W 008°53'3 6.7
2018-Jul-17 14:00N 38°28' W 008°52'3 6.8
2018-Jul-17 13:30N 38°31' W 008°53'3 5.1
2018-Jul-17 13:00N 38°29' W 008°52'1 2.5
2018-Jul-17 12:30N 38°30' W 008°53'0 0.2
2018-Jul-17 12:00N 38°30' W 008°53'2 3.7
2018-Jul-17 11:30N 38°28' W 008°52'3 5.9
2018-Jul-17 11:00N 38°31' W 008°53'3 6.1
2018-Jul-17 10:27N 38°28' W 008°52'3 7.6
2018-Jul-17 10:00N 38°31' W 008°53'2 4.9
2018-Jul-17 09:30N 38°29' W 008°52'2 3.0
2018-Jul-17 08:59N 38°30' W 008°53'1 1.8
2018-Jul-17 08:30N 38°31' W 008°53'3 5.2
2018-Jul-17 08:00N 38°29' W 008°52'3 5.8
2018-Jul-17 07:30N 38°31' W 008°53'3 6.0
2018-Jul-17 06:57N 38°28' W 008°52'3 7.4
2018-Jul-17 06:29N 38°31' W 008°53'0 0.0
2018-Jul-17 05:45N 38°31' W 008°53'0 0.0
2018-Jul-17 03:33N 38°31' W 008°53'0 0.0
2018-Jul-17 03:24N 38°31' W 008°53'0 0.0
2018-Jul-17 02:57N 38°31' W 008°53'0 0.0
2018-Jul-17 01:30N 38°31' W 008°53'0 0.0
2018-Jul-17 00:21N 38°31' W 008°53'0 0.0
2018-Jul-16 23:21N 38°31' W 008°53'2 6.0
2018-Jul-16 22:58N 38°29' W 008°52'0 1.0
2018-Jul-16 22:30N 38°29' W 008°53'2 3.7
2018-Jul-16 22:00N 38°31' W 008°53'3 6.6
2018-Jul-16 21:30N 38°28' W 008°52'3 6.7
2018-Jul-16 21:00N 38°31' W 008°53'3 6.6
2018-Jul-16 20:30N 38°28' W 008°52'3 5.9
2018-Jul-16 20:00N 38°31' W 008°53'1 2.2
2018-Jul-16 19:30N 38°30' W 008°53'1 1.3
2018-Jul-16 19:00N 38°29' W 008°53'2 4.3
2018-Jul-16 18:30N 38°31' W 008°53'3 6.3
2018-Jul-16 18:00N 38°28' W 008°52'3 6.9
2018-Jul-16 17:30N 38°31' W 008°53'3 6.7
2018-Jul-16 17:00N 38°28' W 008°52'3 5.7
2018-Jul-16 16:30N 38°31' W 008°53'2 3.1
2018-Jul-16 16:00N 38°29' W 008°52'1 1.3
2018-Jul-16 15:31N 38°29' W 008°52'2 4.3
2018-Jul-16 15:00N 38°31' W 008°53'3 5.4
2018-Jul-16 14:29N 38°28' W 008°52'3 6.6
2018-Jul-16 13:59N 38°31' W 008°53'3 7.1
2018-Jul-16 13:30N 38°28' W 008°52'3 5.5
2018-Jul-16 13:00N 38°31' W 008°53'1 2.4
2018-Jul-16 12:30N 38°29' W 008°53'1 1.0
2018-Jul-16 12:00N 38°29' W 008°52'2 4.4
2018-Jul-16 11:31N 38°31' W 008°53'3 6.2
2018-Jul-16 10:59N 38°28' W 008°52'3 5.6
2018-Jul-16 10:24N 38°31' W 008°53'3 8.7
2018-Jul-16 10:01N 38°28' W 008°52'3 6.3
2018-Jul-16 09:30N 38°31' W 008°53'1 2.6
2018-Jul-16 09:00N 38°30' W 008°53'1 1.1
2018-Jul-16 08:29N 38°29' W 008°53'2 4.1
2018-Jul-16 07:59N 38°31' W 008°53'0 0.0
2018-Jul-16 07:29N 38°31' W 008°53'0 0.0
2018-Jul-16 06:56N 38°31' W 008°53'0 0.0
2018-Jul-16 06:29N 38°31' W 008°53'0 0.0
2018-Jul-16 05:59N 38°31' W 008°53'0 0.0
2018-Jul-16 05:29N 38°31' W 008°53'0 0.0
2018-Jul-16 04:56N 38°31' W 008°53'0 0.0
2018-Jul-16 04:29N 38°31' W 008°53'0 0.0
2018-Jul-16 03:53N 38°31' W 008°53'0 0.0
2018-Jul-16 03:29N 38°31' W 008°53'0 0.0
2018-Jul-16 02:59N 38°31' W 008°53'0 0.0
2018-Jul-16 02:29N 38°31' W 008°53'0 0.0
2018-Jul-16 01:59N 38°31' W 008°53'0 0.0
2018-Jul-16 01:26N 38°31' W 008°53'0 0.0
2018-Jul-16 00:59N 38°31' W 008°53'0 0.0
2018-Jul-16 00:26N 38°31' W 008°53'0 0.0
2018-Jul-15 23:59N 38°31' W 008°53'0 0.0
2018-Jul-15 23:29N 38°31' W 008°53'0 0.0
2018-Jul-15 22:59N 38°31' W 008°53'0 0.0
2018-Jul-15 22:29N 38°31' W 008°53'0 0.0
2018-Jul-15 21:56N 38°31' W 008°53'0 0.0
2018-Jul-15 21:31N 38°31' W 008°53'3 6.1
2018-Jul-15 20:57N 38°28' W 008°52'3 7.5
2018-Jul-15 20:30N 38°31' W 008°53'2 5.0
2018-Jul-15 20:00N 38°29' W 008°52'1 2.6
2018-Jul-15 19:29N 38°30' W 008°53'0 0.8
2018-Jul-15 19:00N 38°30' W 008°53'2 3.9
2018-Jul-15 18:30N 38°29' W 008°52'3 5.3
2018-Jul-15 17:59N 38°31' W 008°53'3 6.3
2018-Jul-15 17:27N 38°28' W 008°52'3 6.3
2018-Jul-15 16:55N 38°31' W 008°53'3 6.8
2018-Jul-15 16:30N 38°29' W 008°52'1 2.7
2018-Jul-15 16:00N 38°30' W 008°53'1 1.2
2018-Jul-15 15:30N 38°30' W 008°53'2 4.4
2018-Jul-15 15:00N 38°28' W 008°52'3 6.4
2018-Jul-15 14:29N 38°31' W 008°53'3 7.0
2018-Jul-15 14:00N 38°28' W 008°52'3 5.0
2018-Jul-15 13:20N 38°31' W 008°53'3 8.2
2018-Jul-15 13:01N 38°29' W 008°52'1 2.4
2018-Jul-15 12:30N 38°30' W 008°53'0 0.7
2018-Jul-15 12:00N 38°30' W 008°53'2 4.4
2018-Jul-15 11:30N 38°28' W 008°52'3 6.5
2018-Jul-15 11:01N 38°31' W 008°53'3 6.6
2018-Jul-15 10:30N 38°28' W 008°52'3 6.1
2018-Jul-15 09:57N 38°31' W 008°53'3 6.1
2018-Jul-15 09:30N 38°29' W 008°52'1 2.9
2018-Jul-15 09:01N 38°30' W 008°53'1 1.7
2018-Jul-15 08:30N 38°31' W 008°53'2 4.9
2018-Jul-15 08:01N 38°28' W 008°52'3 5.6
2018-Jul-15 07:29N 38°31' W 008°53'3 7.1
2018-Jul-15 07:00N 38°28' W 008°52'3 5.6
2018-Jul-15 06:24N 38°31' W 008°53'0 0.0
2018-Jul-15 06:00N 38°31' W 008°53'0 0.0
2018-Jul-15 05:29N 38°31' W 008°53'0 0.0
2018-Jul-15 04:59N 38°31' W 008°53'0 0.0
2018-Jul-15 03:23N 38°31' W 008°53'0 0.0
2018-Jul-15 02:59N 38°31' W 008°53'0 0.0
2018-Jul-15 02:29N 38°31' W 008°53'0 0.0
2018-Jul-15 01:17N 38°31' W 008°53'0 0.0
2018-Jul-15 00:53N 38°31' W 008°53'0 0.0
2018-Jul-15 00:28N 38°31' W 008°53'3 7.3
2018-Jul-15 00:00N 38°28' W 008°52'3 5.7
2018-Jul-14 23:30N 38°31' W 008°53'2 3.6
2018-Jul-14 22:59N 38°29' W 008°52'1 2.1
2018-Jul-14 22:30N 38°30' W 008°53'1 2.9
2018-Jul-14 22:00N 38°31' W 008°53'3 5.9
2018-Jul-14 21:28N 38°28' W 008°52'3 5.9
2018-Jul-14 20:55N 38°31' W 008°53'3 8.3
2018-Jul-14 20:30N 38°28' W 008°52'3 5.6
2018-Jul-14 20:00N 38°31' W 008°53'1 1.6
2018-Jul-14 19:30N 38°30' W 008°53'1 1.8
2018-Jul-14 19:00N 38°29' W 008°53'2 4.5
2018-Jul-14 18:30N 38°31' W 008°53'3 6.6
2018-Jul-14 18:00N 38°28' W 008°52'3 5.2
2018-Jul-14 17:21N 38°31' W 008°53'3 9.0
2018-Jul-14 16:58N 38°28' W 008°52'3 6.3
2018-Jul-14 16:29N 38°31' W 008°53'2 3.9
2018-Jul-14 16:00N 38°29' W 008°52'0 0.5
2018-Jul-14 15:30N 38°29' W 008°53'1 2.9
2018-Jul-14 14:59N 38°31' W 008°53'3 4.3
2018-Jul-14 14:23N 38°28' W 008°52'0 0.4
2018-Jul-14 13:30N 38°28' W 008°52'3 6.0
2018-Jul-14 13:01N 38°31' W 008°53'1 2.7
2018-Jul-14 12:30N 38°29' W 008°53'1 1.2
2018-Jul-14 12:00N 38°29' W 008°52'2 4.4
2018-Jul-14 11:30N 38°31' W 008°53'3 6.4
2018-Jul-14 11:00N 38°28' W 008°52'3 6.8
2018-Jul-14 10:30N 38°31' W 008°53'3 6.8
2018-Jul-14 10:01N 38°28' W 008°52'3 5.7
2018-Jul-14 09:31N 38°31' W 008°53'1 2.2
2018-Jul-14 09:00N 38°30' W 008°53'0 0.2
2018-Jul-14 08:31N 38°29' W 008°53'2 3.4
2018-Jul-14 07:59N 38°31' W 008°53'0 0.0
2018-Jul-14 07:29N 38°31' W 008°53'0 0.0
2018-Jul-14 06:59N 38°31' W 008°53'0 0.0
2018-Jul-14 06:29N 38°31' W 008°53'0 0.0
2018-Jul-14 05:56N 38°31' W 008°53'0 0.0
2018-Jul-14 05:29N 38°31' W 008°53'0 0.0
2018-Jul-14 04:59N 38°31' W 008°53'0 0.0
2018-Jul-14 04:29N 38°31' W 008°53'0 0.0
2018-Jul-14 03:53N 38°31' W 008°53'0 0.0
2018-Jul-14 03:29N 38°31' W 008°53'0 0.0
2018-Jul-14 02:59N 38°31' W 008°53'0 0.0
2018-Jul-14 02:26N 38°31' W 008°53'0 0.0
2018-Jul-14 01:59N 38°31' W 008°53'0 0.0
2018-Jul-14 01:29N 38°31' W 008°53'0 0.0
2018-Jul-14 00:59N 38°31' W 008°53'0 0.0
2018-Jul-14 00:29N 38°31' W 008°53'0 0.0
2018-Jul-13 23:53N 38°31' W 008°53'0 0.0
2018-Jul-13 23:29N 38°31' W 008°53'0 0.0
2018-Jul-13 22:53N 38°31' W 008°53'0 0.0
2018-Jul-13 22:29N 38°31' W 008°53'0 0.0
2018-Jul-13 21:59N 38°31' W 008°53'0 0.0
2018-Jul-13 21:30N 38°31' W 008°53'3 6.8
2018-Jul-13 21:00N 38°28' W 008°52'3 5.8
2018-Jul-13 20:25N 38°31' W 008°53'3 6.2
2018-Jul-13 20:00N 38°29' W 008°52'1 2.8
2018-Jul-13 19:30N 38°30' W 008°53'1 1.2
2018-Jul-13 19:00N 38°30' W 008°53'2 4.4
2018-Jul-13 18:30N 38°28' W 008°52'3 5.8
2018-Jul-13 18:00N 38°31' W 008°53'3 6.3
2018-Jul-13 17:28N 38°28' W 008°52'3 7.4
2018-Jul-13 17:00N 38°31' W 008°53'3 5.2
2018-Jul-13 16:30N 38°29' W 008°52'1 2.5
2018-Jul-13 16:00N 38°30' W 008°53'0 0.6
2018-Jul-13 15:30N 38°30' W 008°53'2 4.5
2018-Jul-13 15:00N 38°28' W 008°52'0 0.1
2018-Jul-13 14:00N 38°28' W 008°52'3 6.4
2018-Jul-13 13:29N 38°31' W 008°53'3 5.8
2018-Jul-13 13:00N 38°29' W 008°52'2 3.2
2018-Jul-13 12:31N 38°30' W 008°53'0 0.6
2018-Jul-13 12:00N 38°30' W 008°53'2 3.6
2018-Jul-13 11:31N 38°28' W 008°52'3 6.2
2018-Jul-13 10:59N 38°31' W 008°53'3 6.6
2018-Jul-13 10:28N 38°28' W 008°52'3 7.2
2018-Jul-13 10:00N 38°31' W 008°53'3 5.8
2018-Jul-13 09:30N 38°29' W 008°52'1 3.0
2018-Jul-13 09:00N 38°30' W 008°53'1 1.3
2018-Jul-13 08:29N 38°30' W 008°53'2 4.7
2018-Jul-13 08:00N 38°28' W 008°52'3 6.1
2018-Jul-13 07:30N 38°31' W 008°53'3 6.7
2018-Jul-13 07:00N 38°28' W 008°52'3 6.8
2018-Jul-13 06:30N 38°31' W 008°53'0 0.0
2018-Jul-13 05:56N 38°31' W 008°53'0 0.0
2018-Jul-13 05:29N 38°31' W 008°53'0 0.0
2018-Jul-13 04:59N 38°31' W 008°53'0 0.0
2018-Jul-13 04:29N 38°31' W 008°53'0 0.0
2018-Jul-13 03:50N 38°31' W 008°53'0 0.0
2018-Jul-13 03:29N 38°31' W 008°53'0 0.0
2018-Jul-13 02:56N 38°31' W 008°53'0 0.0
2018-Jul-13 02:20N 38°31' W 008°53'0 0.0
2018-Jul-13 01:41N 38°31' W 008°53'0 0.0
2018-Jul-12 23:29N 38°31' W 008°53'2 4.2
2018-Jul-12 23:00N 38°29' W 008°53'0 0.6
2018-Jul-12 22:30N 38°29' W 008°52'2 4.0
2018-Jul-12 22:00N 38°31' W 008°53'3 6.1
2018-Jul-12 21:30N 38°28' W 008°52'3 6.2
2018-Jul-12 20:57N 38°31' W 008°53'3 7.1
2018-Jul-12 20:28N 38°28' W 008°52'3 5.9
2018-Jul-12 20:00N 38°31' W 008°53'1 2.5
2018-Jul-12 19:30N 38°29' W 008°53'0 0.7
2018-Jul-12 19:00N 38°29' W 008°53'2 4.3
2018-Jul-12 18:30N 38°31' W 008°53'3 6.1
2018-Jul-12 17:59N 38°28' W 008°52'3 6.7
2018-Jul-12 17:30N 38°31' W 008°53'3 6.7
2018-Jul-12 17:00N 38°28' W 008°52'3 5.6
2018-Jul-12 16:30N 38°31' W 008°53'1 1.6
2018-Jul-12 16:00N 38°30' W 008°53'1 1.7
2018-Jul-12 15:30N 38°29' W 008°53'2 3.7
2018-Jul-12 15:00N 38°31' W 008°53'3 5.8
2018-Jul-12 14:30N 38°28' W 008°52'3 6.6
2018-Jul-12 14:00N 38°31' W 008°53'3 6.7
2018-Jul-12 13:30N 38°28' W 008°52'3 5.2
2018-Jul-12 13:00N 38°30' W 008°53'1 2.1
2018-Jul-12 12:30N 38°29' W 008°53'1 1.4
2018-Jul-12 12:00N 38°29' W 008°52'2 3.9
2018-Jul-12 11:29N 38°31' W 008°53'3 5.8
2018-Jul-12 11:00N 38°28' W 008°52'3 5.6
2018-Jul-12 10:24N 38°31' W 008°53'3 8.3
2018-Jul-12 10:00N 38°28' W 008°52'3 5.8
2018-Jul-12 09:30N 38°31' W 008°53'2 3.2
2018-Jul-12 08:59N 38°29' W 008°53'0 0.8
2018-Jul-12 08:30N 38°29' W 008°52'3 5.1
2018-Jul-12 08:00N 38°31' W 008°53'0 0.0
2018-Jul-12 07:26N 38°31' W 008°53'0 0.0
2018-Jul-12 06:50N 38°31' W 008°53'0 0.0
2018-Jul-12 06:26N 38°31' W 008°53'0 0.0
2018-Jul-12 05:56N 38°31' W 008°53'0 0.0
2018-Jul-12 05:29N 38°31' W 008°53'0 0.0
2018-Jul-12 04:59N 38°31' W 008°53'0 0.0
2018-Jul-12 04:29N 38°31' W 008°53'0 0.0
2018-Jul-12 03:56N 38°31' W 008°53'0 0.0
2018-Jul-12 03:23N 38°31' W 008°53'0 0.0
2018-Jul-12 02:56N 38°31' W 008°53'0 0.0
2018-Jul-12 02:26N 38°31' W 008°53'0 0.0
2018-Jul-12 01:59N 38°31' W 008°53'0 0.0
2018-Jul-12 01:14N 38°31' W 008°53'0 0.0
2018-Jul-12 00:56N 38°31' W 008°53'0 0.0
2018-Jul-12 00:20N 38°31' W 008°53'0 0.0
2018-Jul-11 23:56N 38°31' W 008°53'0 0.0
2018-Jul-11 23:26N 38°31' W 008°53'0 0.0
2018-Jul-11 22:53N 38°31' W 008°53'0 0.0
2018-Jul-11 22:26N 38°31' W 008°53'0 0.0
2018-Jul-11 21:44N 38°31' W 008°53'0 0.1
2018-Jul-11 21:30N 38°31' W 008°53'3 6.3
2018-Jul-11 20:58N 38°28' W 008°52'3 6.6
2018-Jul-11 20:28N 38°31' W 008°53'3 5.8
2018-Jul-11 20:00N 38°29' W 008°52'1 2.7
2018-Jul-11 19:31N 38°30' W 008°53'0 1.0
2018-Jul-11 19:00N 38°30' W 008°53'2 4.7
2018-Jul-11 18:30N 38°28' W 008°52'  

Dump ship's entire track history